Time;durP1;ratioP1;P1;durP2;ratioP2;P2;SDS_P1;SDS_P2;PMS_P1;PMS_P2;Temp;Humidity;BMP_temperature;BMP_pressure;BME280_temperature;BME280_humidity;BME280_pressure;Samples;Min_cycle;Max_cycle;Signal;HPM_P1;HPM_P2
2021/07/10 00:02:46;;;;;;;9.90;6.57;;;;;;;19.60;75.15;100166.89;154000;1093;103234;-76
2021/07/10 00:05:51;;;;;;;10.80;6.80;;;;;;;19.59;74.97;100170.66;154084;1101;103096;-77
2021/07/10 00:08:56;;;;;;;11.67;6.73;;;;;;;19.55;75.25;100179.41;154032;1093;103153;-77
2021/07/10 00:12:01;;;;;;;8.70;6.20;;;;;;;19.54;75.33;100175.88;153978;1093;103281;-78
2021/07/10 00:15:08;;;;;;;9.70;5.70;;;;;;;19.57;75.18;100183.58;153984;1101;103193;-78
2021/07/10 00:18:13;;;;;;;12.53;6.47;;;;;;;19.54;75.26;100183.99;153938;1101;103133;-80
2021/07/10 00:21:18;;;;;;;9.00;6.23;;;;;;;19.49;75.24;100172.97;153961;1093;103104;-79
2021/07/10 00:24:23;;;;;;;8.87;6.20;;;;;;;19.49;75.49;100175.67;154040;1093;103589;-79
2021/07/10 00:27:28;;;;;;;14.00;6.40;;;;;;;19.48;75.33;100168.61;154144;1101;103195;-77
2021/07/10 00:30:33;;;;;;;9.73;6.13;;;;;;;19.46;75.28;100181.53;154014;1093;103135;-80
2021/07/10 00:33:38;;;;;;;10.40;5.75;;;;;;;19.43;75.47;100171.95;153974;1101;103120;-80
2021/07/10 00:36:43;;;;;;;10.13;6.50;;;;;;;19.40;75.55;100183.21;154303;1101;103119;-79
2021/07/10 00:39:48;;;;;;;7.90;6.43;;;;;;;19.38;75.67;100181.74;154114;1093;103193;-80
2021/07/10 00:42:53;;;;;;;11.63;6.23;;;;;;;19.33;75.55;100171.57;154057;1101;103496;-80
2021/07/10 00:45:58;;;;;;;9.03;6.40;;;;;;;19.31;75.80;100167.42;153988;1093;103207;-79
2021/07/10 00:49:04;;;;;;;13.03;6.70;;;;;;;19.32;75.81;100166.36;154049;1101;103203;-79
2021/07/10 00:52:09;;;;;;;12.23;6.80;;;;;;;19.36;76.04;100164.89;153977;1093;103196;-79
2021/07/10 00:55:15;;;;;;;15.60;7.63;;;;;;;19.37;76.00;100155.75;154089;1101;103149;-74
2021/07/10 00:58:20;;;;;;;12.27;6.97;;;;;;;19.38;75.94;100152.83;154004;1101;103275;-74
2021/07/10 01:01:26;;;;;;;11.37;6.43;;;;;;;19.45;75.83;100139.27;154001;1101;103131;-74
2021/07/10 01:04:31;;;;;;;10.20;6.60;;;;;;;19.43;75.79;100130.53;153989;1093;103103;-76
2021/07/10 01:07:37;;;;;;;11.43;6.90;;;;;;;19.39;75.81;100137.42;153964;1101;103312;-76
2021/07/10 01:10:42;;;;;;;12.23;7.47;;;;;;;19.28;75.91;100132.67;154012;1101;103123;-77
2021/07/10 01:13:49;;;;;;;9.73;6.60;;;;;;;19.27;76.04;100139.96;153963;1093;103286;-77
2021/07/10 01:16:54;;;;;;;9.90;6.40;;;;;;;19.27;76.00;100147.25;154048;1094;103119;-77
2021/07/10 01:20:05;;;;;;;10.93;6.80;;;;;;;19.22;75.87;100148.70;153985;1101;103119;-77
2021/07/10 01:23:10;;;;;;;11.03;7.00;;;;;;;19.16;75.96;100149.55;153981;1101;103132;-76
2021/07/10 01:26:15;;;;;;;10.90;7.60;;;;;;;19.12;75.83;100164.55;153967;1101;103218;-76
2021/07/10 01:29:20;;;;;;;9.27;6.60;;;;;;;19.08;76.14;100159.78;153964;1101;103557;-77
2021/07/10 01:32:25;;;;;;;12.13;7.30;;;;;;;19.08;76.13;100163.31;153965;1101;103202;-77
2021/07/10 01:35:31;;;;;;;9.20;6.87;;;;;;;19.09;76.25;100167.69;153988;1101;103121;-78
2021/07/10 01:38:36;;;;;;;10.70;7.93;;;;;;;19.16;76.53;100173.08;154007;1101;103171;-78
2021/07/10 01:41:46;;;;;;;14.57;8.30;;;;;;;19.16;76.35;100171.19;154081;1101;103133;-75
2021/07/10 01:44:51;;;;;;;13.27;8.90;;;;;;;19.16;76.61;100173.89;153975;1101;103128;-78
2021/07/10 01:47:56;;;;;;;11.73;8.70;;;;;;;19.19;76.93;100167.25;153956;1093;103197;-79
2021/07/10 01:51:01;;;;;;;14.47;10.83;;;;;;;19.28;76.82;100173.25;153952;1101;103159;-80
2021/07/10 01:54:06;;;;;;;14.70;11.17;;;;;;;19.36;76.87;100179.27;153975;1101;103200;-77
2021/07/10 01:57:12;;;;;;;15.60;10.33;;;;;;;19.43;76.94;100176.53;153998;1101;103358;-76
2021/07/10 02:00:19;;;;;;;17.80;11.10;;;;;;;19.50;77.04;100177.35;153968;1094;103294;-77
2021/07/10 02:03:24;;;;;;;15.30;11.80;;;;;;;19.55;77.03;100171.28;154082;1101;103141;-76
2021/07/10 02:06:30;;;;;;;17.93;12.83;;;;;;;19.61;77.10;100168.56;154144;1101;103107;-78
2021/07/10 02:09:35;;;;;;;19.07;12.83;;;;;;;19.67;76.99;100171.44;153983;1101;103147;-75
2021/07/10 02:12:41;;;;;;;18.73;13.40;;;;;;;19.65;77.04;100168.97;153966;1101;103125;-77
2021/07/10 02:15:46;;;;;;;18.43;12.43;;;;;;;19.65;77.08;100178.95;153998;1093;103288;-75
2021/07/10 02:18:51;;;;;;;18.35;13.60;;;;;;;19.68;77.12;100173.11;154005;1094;103173;-76
2021/07/10 02:21:56;;;;;;;21.13;14.33;;;;;;;19.69;76.94;100177.47;154085;1101;103200;-78
2021/07/10 02:25:01;;;;;;;22.50;15.20;;;;;;;19.71;77.22;100175.41;154033;1094;103206;-76
2021/07/10 02:28:06;;;;;;;21.67;15.30;;;;;;;19.73;77.29;100178.76;153991;1101;103225;-77
2021/07/10 02:31:11;;;;;;;20.63;15.00;;;;;;;19.75;77.39;100184.78;153965;1093;103285;-77
2021/07/10 02:34:16;;;;;;;22.70;15.20;;;;;;;19.76;77.37;100187.25;154089;1093;103136;-78
2021/07/10 02:37:21;;;;;;;25.60;16.45;;;;;;;19.79;77.38;100181.42;153955;1101;103094;-78
2021/07/10 02:40:26;;;;;;;20.03;15.30;;;;;;;19.79;77.35;100176.00;153950;1093;103130;-77
2021/07/10 02:43:31;;;;;;;25.33;15.87;;;;;;;19.81;77.31;100181.21;153996;1101;103093;-77
2021/07/10 02:46:36;;;;;;;23.87;17.13;;;;;;;19.81;77.59;100182.03;153937;1093;103189;-76
2021/07/10 02:49:41;;;;;;;21.50;15.60;;;;;;;19.85;77.50;100185.14;154157;1101;103128;-78
2021/07/10 02:52:47;;;;;;;22.30;15.63;;;;;;;19.88;77.63;100190.14;154169;1093;103547;-78
2021/07/10 02:55:52;;;;;;;25.10;16.30;;;;;;;19.91;77.61;100195.11;154383;1101;103131;-78
2021/07/10 02:58:57;;;;;;;22.57;15.27;;;;;;;19.92;77.75;100196.78;154215;1093;103231;-77
2021/07/10 03:02:02;;;;;;;21.30;15.00;;;;;;;19.94;77.70;100204.70;154020;1093;103231;-77
2021/07/10 03:05:09;;;;;;;22.83;16.43;;;;;;;19.97;77.81;100207.78;154006;1101;103196;-76
2021/07/10 03:08:14;;;;;;;19.43;15.03;;;;;;;19.95;77.84;100207.16;154080;1093;103115;-76
2021/07/10 03:11:19;;;;;;;21.80;14.43;;;;;;;19.86;77.90;100207.63;153969;1093;103255;-76
2021/07/10 03:14:25;;;;;;;17.43;13.97;;;;;;;19.84;77.96;100209.72;153982;1101;103094;-75
2021/07/10 03:17:30;;;;;;;16.53;13.73;;;;;;;19.73;77.92;100219.36;154008;1093;103278;-74
2021/07/10 03:20:35;;;;;;;16.85;13.35;;;;;;;19.69;77.94;100218.93;154002;1101;103198;-75
2021/07/10 03:23:40;;;;;;;16.53;13.00;;;;;;;19.66;77.59;100229.34;154017;1101;103187;-75
2021/07/10 03:26:45;;;;;;;16.07;13.10;;;;;;;19.61;77.80;100233.53;154005;1093;103100;-77
2021/07/10 03:29:50;;;;;;;14.43;12.63;;;;;;;19.62;77.83;100227.05;154003;1101;103231;-76
2021/07/10 03:32:55;;;;;;;17.15;14.10;;;;;;;19.69;77.82;100237.02;153973;1093;103202;-76
2021/07/10 03:36:01;;;;;;;17.20;13.05;;;;;;;19.71;77.59;100234.96;154020;1101;103261;-75
2021/07/10 03:39:06;;;;;;;14.67;11.40;;;;;;;19.72;77.70;100237.46;153946;1094;103253;-75
2021/07/10 03:42:11;;;;;;;12.10;9.60;;;;;;;19.67;77.04;100237.27;153962;1093;103131;-76
2021/07/10 03:45:17;;;;;;;12.87;9.67;;;;;;;19.64;77.13;100243.09;153958;1101;103480;-76
2021/07/10 03:48:22;;;;;;;10.80;9.40;;;;;;;19.53;77.15;100241.86;153986;1101;103197;-76
2021/07/10 03:51:28;;;;;;;10.73;9.60;;;;;;;19.40;76.82;100241.92;154018;1101;103132;-75
2021/07/10 03:54:33;;;;;;;12.90;10.03;;;;;;;19.36;77.03;100246.91;153974;1101;103122;-75
2021/07/10 03:57:38;;;;;;;11.53;8.77;;;;;;;19.29;77.00;100250.67;154008;1094;103141;-75
2021/07/10 04:00:44;;;;;;;12.03;8.50;;;;;;;19.29;77.31;100247.97;153973;1093;103271;-75
2021/07/10 04:03:49;;;;;;;11.00;8.67;;;;;;;19.35;77.42;100247.95;153938;1093;103288;-75
2021/07/10 04:06:54;;;;;;;11.60;8.20;;;;;;;19.30;76.95;100249.62;154047;1101;103126;-78
2021/07/10 04:09:59;;;;;;;8.73;7.50;;;;;;;19.12;76.58;100256.50;154000;1101;103153;-79
2021/07/10 04:13:04;;;;;;;11.70;6.55;;;;;;;19.07;76.97;100252.77;153986;1101;103103;-80
2021/07/10 04:16:09;;;;;;;7.50;5.70;;;;;;;19.06;76.73;100265.46;153991;1101;103190;-77
2021/07/10 04:19:14;;;;;;;7.47;5.90;;;;;;;19.05;76.94;100265.66;153953;1095;103195;-76
2021/07/10 04:22:19;;;;;;;9.70;5.93;;;;;;;19.17;77.01;100266.72;153998;1101;103153;-77
2021/07/10 04:25:24;;;;;;;8.80;5.70;;;;;;;19.20;76.90;100266.28;154028;1096;103526;-76
2021/07/10 04:28:30;;;;;;;6.87;6.03;;;;;;;19.28;76.65;100270.64;153978;1096;103195;-75
2021/07/10 04:31:35;;;;;;;8.93;4.97;;;;;;;19.34;76.81;100272.50;154043;1101;103119;-76
2021/07/10 04:34:40;;;;;;;6.47;4.67;;;;;;;19.43;76.59;100266.66;153931;1101;103264;-77
2021/07/10 04:37:46;;;;;;;7.00;4.27;;;;;;;19.49;76.67;100278.52;154009;1101;103171;-75
2021/07/10 04:40:51;;;;;;;4.80;3.10;;;;;;;19.48;75.73;100278.75;154071;1096;103200;-76
2021/07/10 04:43:56;;;;;;;3.75;2.40;;;;;;;19.43;75.74;100276.66;153950;1101;103128;-75
2021/07/10 04:47:01;;;;;;;3.43;1.90;;;;;;;19.45;75.42;100284.56;153976;1096;103217;-76
2021/07/10 04:50:07;;;;;;;2.80;2.00;;;;;;;19.52;75.76;100283.52;153990;1101;103260;-77
2021/07/10 04:53:12;;;;;;;2.43;1.60;;;;;;;19.53;75.44;100289.75;154054;1101;103202;-79
2021/07/10 04:56:17;;;;;;;2.90;1.37;;;;;;;19.51;74.84;100300.78;154180;1101;103125;-79
2021/07/10 04:59:22;;;;;;;3.95;1.30;;;;;;;19.53;74.73;100317.64;154128;1093;103139;-79
2021/07/10 05:02:27;;;;;;;1.43;1.27;;;;;;;19.51;74.60;100313.48;154032;1093;103132;-79
2021/07/10 05:05:32;;;;;;;2.03;1.20;;;;;;;19.34;74.47;100318.50;153990;1101;103261;-79
2021/07/10 05:08:38;;;;;;;1.70;1.00;;;;;;;19.33;74.69;100322.26;154246;1101;103281;-81
2021/07/10 05:11:43;;;;;;;1.60;1.00;;;;;;;19.33;74.50;100296.02;154069;1101;103147;-78
2021/07/10 05:14:49;;;;;;;2.00;1.07;;;;;;;19.35;73.67;100303.94;153971;1096;103166;-77
2021/07/10 05:17:54;;;;;;;1.67;1.10;;;;;;;19.33;73.96;100300.61;154036;1096;103315;-79
2021/07/10 05:20:59;;;;;;;1.73;1.00;;;;;;;19.38;73.80;100298.09;153974;1101;103284;-78
2021/07/10 05:24:05;;;;;;;1.27;1.17;;;;;;;19.43;73.98;100301.83;154090;1101;103224;-76
2021/07/10 05:27:10;;;;;;;1.10;1.00;;;;;;;19.50;73.83;100306.43;154114;1101;103131;-76
2021/07/10 05:30:18;;;;;;;2.63;1.00;;;;;;;19.54;74.03;100302.25;153981;1101;103142;-75
2021/07/10 05:33:23;;;;;;;1.23;1.10;;;;;;;19.63;73.53;100295.58;154024;1101;103139;-76
2021/07/10 05:36:28;;;;;;;3.27;1.10;;;;;;;19.68;73.34;100298.46;153996;1093;103356;-72
2021/07/10 05:39:33;;;;;;;2.20;1.20;;;;;;;19.79;73.25;100295.14;154329;1101;103220;-76
2021/07/10 05:42:39;;;;;;;1.67;1.07;;;;;;;19.96;73.33;100302.80;154174;1093;103213;-77
2021/07/10 05:45:44;;;;;;;2.77;1.00;;;;;;;20.23;73.57;100306.23;154031;1101;103129;-68
2021/07/10 05:48:49;;;;;;;1.20;0.83;;;;;;;20.64;73.08;100296.86;153907;1101;103170;-69
2021/07/10 05:51:54;;;;;;;1.47;0.97;;;;;;;20.97;72.49;100312.07;153984;1101;103279;-69
2021/07/10 05:54:59;;;;;;;1.37;1.00;;;;;;;21.13;72.10;100311.54;153889;1101;103195;-68
2021/07/10 05:58:04;;;;;;;2.77;0.90;;;;;;;21.34;71.76;100333.89;153822;1101;103557;-69
2021/07/10 06:01:09;;;;;;;1.73;0.90;;;;;;;21.52;71.78;100331.27;153729;1101;103187;-66
2021/07/10 06:04:14;;;;;;;2.30;1.00;;;;;;;21.63;71.43;100331.58;153813;1101;103168;-70
2021/07/10 06:07:20;;;;;;;1.47;0.93;;;;;;;21.65;70.67;100324.88;153823;1101;103201;-68
2021/07/10 06:10:25;;;;;;;2.13;0.80;;;;;;;21.49;70.26;100322.73;153893;1101;103137;-69
2021/07/10 06:13:30;;;;;;;3.73;0.90;;;;;;;21.44;70.62;100323.41;153828;1093;103136;-72
2021/07/10 06:16:35;;;;;;;8.23;2.20;;;;;;;21.47;70.19;100335.70;154058;1101;103197;-68
2021/07/10 06:19:40;;;;;;;1.33;0.90;;;;;;;21.45;69.96;100332.38;153816;1093;103110;-71
2021/07/10 06:22:47;;;;;;;1.73;1.17;;;;;;;21.45;69.70;100335.09;153793;1093;103206;-71
2021/07/10 06:25:53;;;;;;;0.60;0.60;;;;;;;21.42;69.54;100344.49;153972;1101;103222;-70
2021/07/10 06:29:00;;;;;;;0.77;0.70;;;;;;;21.32;69.30;100344.14;153917;1093;103139;-73
2021/07/10 06:32:07;;;;;;;1.63;0.80;;;;;;;21.24;68.27;100344.42;154013;1101;104080;-72
2021/07/10 06:35:13;;;;;;;1.63;0.60;;;;;;;21.08;68.88;100349.34;154102;1094;103586;-71
2021/07/10 06:38:18;;;;;;;0.80;0.80;;;;;;;21.11;68.87;100351.63;154014;1101;103692;-68
2021/07/10 06:41:23;;;;;;;0.97;0.60;;;;;;;21.27;69.15;100357.56;153869;1093;103118;-76
2021/07/10 06:44:28;;;;;;;2.30;0.80;;;;;;;21.46;69.00;100353.88;153995;1101;103144;-67
2021/07/10 06:47:34;;;;;;;1.27;0.70;;;;;;;21.51;67.79;100350.48;153857;1101;103101;-68
2021/07/10 06:50:39;;;;;;;0.60;0.60;;;;;;;21.39;67.78;100350.35;153923;1101;103144;-72
2021/07/10 06:53:44;;;;;;;0.70;0.70;;;;;;;21.37;67.05;100347.86;153786;1101;103575;-70
2021/07/10 06:56:49;;;;;;;1.75;0.80;;;;;;;21.29;67.84;100336.47;153848;1093;103110;-69
2021/07/10 06:59:54;;;;;;;2.25;0.70;;;;;;;21.36;67.78;100335.35;153807;1101;103153;-69
2021/07/10 07:02:59;;;;;;;1.07;0.60;;;;;;;21.58;67.85;100334.97;153865;1094;103104;-69
2021/07/10 07:06:04;;;;;;;0.70;0.60;;;;;;;21.79;67.18;100338.30;153795;1093;103198;-71
2021/07/10 07:09:10;;;;;;;1.70;0.70;;;;;;;21.90;67.06;100335.69;153801;1101;103201;-68
2021/07/10 07:12:15;;;;;;;1.90;1.00;;;;;;;22.11;66.90;100330.84;153836;1101;103144;-72
2021/07/10 07:15:20;;;;;;;0.63;0.60;;;;;;;22.29;66.51;100319.99;153804;1101;103192;-70
2021/07/10 07:18:25;;;;;;;0.97;0.40;;;;;;;22.49;65.80;100329.77;153839;1101;103199;-70
2021/07/10 07:21:30;;;;;;;2.85;0.70;;;;;;;22.67;63.36;100326.16;153793;1094;103145;-69
2021/07/10 07:24:35;;;;;;;2.60;0.57;;;;;;;22.53;65.00;100330.97;153811;1093;103272;-69
2021/07/10 07:27:40;;;;;;;1.43;0.70;;;;;;;22.35;65.47;100346.25;153808;1094;103492;-70
2021/07/10 07:30:45;;;;;;;1.20;0.90;;;;;;;22.27;64.83;100335.70;153817;1093;103123;-73
2021/07/10 07:33:50;;;;;;;1.73;0.70;;;;;;;22.16;65.04;100333.72;153790;1093;103206;-70
2021/07/10 07:36:55;;;;;;;4.33;1.20;;;;;;;22.17;64.71;100338.08;154083;1101;103114;-72
2021/07/10 07:40:01;;;;;;;1.43;0.70;;;;;;;22.19;64.91;100338.70;154021;1101;103790;-78
2021/07/10 07:43:07;;;;;;;1.00;0.70;;;;;;;22.25;64.67;100335.10;154150;1101;103192;-80
2021/07/10 07:46:13;;;;;;;1.17;0.70;;;;;;;22.33;64.36;100342.94;154027;1093;103116;-78
2021/07/10 07:49:19;;;;;;;1.17;0.60;;;;;;;22.39;64.50;100341.19;153958;1101;103111;-81
2021/07/10 07:52:23;;;;;;;3.57;0.63;;;;;;;22.47;64.18;100349.03;153990;1101;103139;-76
2021/07/10 07:55:29;;;;;;;2.30;0.77;;;;;;;22.58;63.92;100344.71;154002;1094;103214;-81
2021/07/10 07:58:34;;;;;;;1.00;0.80;;;;;;;22.77;63.89;100339.20;154376;1093;103122;-79
2021/07/10 08:01:39;;;;;;;0.90;0.80;;;;;;;22.87;63.98;100337.59;153935;1093;103131;-78
2021/07/10 08:04:44;;;;;;;1.30;1.07;;;;;;;23.11;63.75;100354.00;154034;1101;103125;-79
2021/07/10 08:07:50;;;;;;;1.00;0.80;;;;;;;23.13;63.03;100352.72;154000;1093;103147;-79
2021/07/10 08:10:55;;;;;;;4.10;0.93;;;;;;;23.13;63.36;100363.61;153963;1101;103256;-84
2021/07/10 08:14:00;;;;;;;1.70;0.97;;;;;;;23.10;62.95;100369.52;154129;1101;103131;-83
2021/07/10 18:11:20;;;;;;;3.00;2.70;;;;;;;24.13;55.69;100423.72;154227;1101;103203;-75
2021/07/10 18:14:29;;;;;;;3.08;2.68;;;;;;;24.02;55.59;100425.41;154124;1101;103099;-77
2021/07/10 18:17:34;;;;;;;3.53;2.67;;;;;;;23.96;56.30;100431.81;153978;1101;103190;-79
2021/07/10 18:20:39;;;;;;;3.97;2.67;;;;;;;23.93;56.16;100426.01;154074;1093;103147;-76
2021/07/10 18:23:44;;;;;;;2.47;2.27;;;;;;;23.89;56.16;100431.92;154154;1101;103360;-78
2021/07/10 18:26:50;;;;;;;2.60;2.40;;;;;;;23.82;56.53;100438.55;154046;1101;103125;-75
2021/07/10 18:29:55;;;;;;;2.23;2.03;;;;;;;23.66;56.73;100434.61;155247;1093;103253;-78
2021/07/10 18:33:00;;;;;;;3.03;2.30;;;;;;;23.43;56.82;100435.41;154317;1093;103195;-77
2021/07/10 18:36:07;;;;;;;4.85;3.03;;;;;;;23.21;56.96;100443.26;154221;1093;103134;-78
2021/07/10 18:39:12;;;;;;;3.60;3.30;;;;;;;23.01;56.83;100441.63;154062;1101;103276;-77
2021/07/10 18:42:17;;;;;;;3.40;2.60;;;;;;;22.64;57.27;100444.42;154077;1101;103218;-76
2021/07/10 18:45:24;;;;;;;3.53;2.70;;;;;;;22.29;57.41;100447.75;154298;1093;103152;-77
2021/07/10 18:48:30;;;;;;;3.83;2.80;;;;;;;22.00;57.78;100448.42;154029;1101;103233;-75
2021/07/10 18:51:36;;;;;;;3.07;2.77;;;;;;;21.72;58.09;100453.27;154361;1101;103177;-75
2021/07/10 18:54:41;;;;;;;3.70;2.83;;;;;;;21.46;58.28;100457.05;154212;1101;103267;-76
2021/07/10 18:57:48;;;;;;;3.10;2.90;;;;;;;21.24;58.49;100461.13;154152;1093;103224;-79
2021/07/10 19:00:53;;;;;;;3.53;3.17;;;;;;;21.01;58.84;100464.38;154434;1101;103195;-77
2021/07/10 19:03:58;;;;;;;3.27;2.97;;;;;;;20.76;58.83;100460.52;154133;1093;103224;-77
2021/07/10 19:07:03;;;;;;;4.55;2.85;;;;;;;20.60;59.28;100463.73;154403;1101;103217;-78
2021/07/10 19:10:12;;;;;;;4.50;3.30;;;;;;;20.51;59.40;100464.97;154114;1093;103270;-77
2021/07/10 19:13:17;;;;;;;3.33;3.03;;;;;;;20.39;59.51;100467.52;154286;1101;103216;-77
2021/07/10 19:16:22;;;;;;;3.97;3.17;;;;;;;20.26;59.41;100473.78;154093;1101;103224;-74
2021/07/10 19:19:28;;;;;;;3.50;3.20;;;;;;;20.16;59.46;100478.81;154206;1101;103120;-77
2021/07/10 19:22:34;;;;;;;3.53;3.23;;;;;;;20.04;59.86;100481.33;154406;1101;103211;-76
2021/07/10 19:25:39;;;;;;;3.50;3.20;;;;;;;19.91;60.05;100482.16;155436;1101;103145;-75
2021/07/10 19:28:44;;;;;;;4.07;3.37;;;;;;;19.76;60.10;100479.66;154292;1093;103148;-77
2021/07/10 19:31:49;;;;;;;3.93;3.50;;;;;;;19.66;60.33;100478.39;154455;1101;103518;-77
2021/07/10 19:34:54;;;;;;;4.70;3.65;;;;;;;19.56;60.41;100479.63;154602;1101;103573;-75
2021/07/10 19:37:59;;;;;;;4.63;3.20;;;;;;;19.46;60.60;100487.33;154252;1101;103563;-85
2021/07/10 19:41:06;;;;;;;3.90;3.10;;;;;;;19.40;60.71;100491.69;154346;1094;103703;-84
2021/07/10 19:44:11;;;;;;;4.70;3.40;;;;;;;19.35;60.67;100486.05;154726;1101;103827;-79
2021/07/10 19:47:16;;;;;;;5.60;3.40;;;;;;;19.32;60.96;100481.06;154659;1101;103116;-81
2021/07/10 19:50:24;;;;;;;4.63;3.83;;;;;;;19.26;60.96;100472.92;154656;1093;103554;-79
2021/07/10 19:53:29;;;;;;;5.25;4.35;;;;;;;19.18;60.99;100479.35;154230;1101;103115;-79
2021/07/10 19:56:34;;;;;;;6.30;4.40;;;;;;;19.11;61.17;100484.76;154177;1101;103282;-82
2021/07/10 19:59:39;;;;;;;9.65;3.90;;;;;;;19.06;61.59;100473.70;154146;1101;103183;-83
2021/07/10 20:02:45;;;;;;;4.43;4.00;;;;;;;18.99;61.32;100470.96;154195;1101;103128;-84
2021/07/10 20:05:50;;;;;;;6.23;4.33;;;;;;;18.90;61.30;100466.80;154213;1101;103121;-85
2021/07/10 20:08:55;;;;;;;5.27;4.30;;;;;;;18.81;61.53;100466.13;154188;1101;103221;-82
2021/07/10 20:12:00;;;;;;;4.98;4.28;;;;;;;18.75;61.50;100475.02;154190;1094;103184;-83
2021/07/10 20:15:07;;;;;;;4.93;4.30;;;;;;;18.67;61.62;100467.09;154117;1094;103137;-81
2021/07/10 20:18:14;;;;;;;4.20;3.53;;;;;;;18.61;61.81;100478.67;154151;1101;103196;-82
2021/07/10 20:21:19;;;;;;;7.27;4.60;;;;;;;18.57;61.70;100480.97;154152;1100;103195;-84
2021/07/10 20:24:24;;;;;;;4.97;4.13;;;;;;;18.44;61.81;100481.72;154457;1101;103166;-81
2021/07/10 20:27:29;;;;;;;6.80;4.13;;;;;;;18.35;62.05;100477.51;153985;1094;103446;-80
2021/07/10 20:30:35;;;;;;;5.13;4.45;;;;;;;18.19;62.27;100475.14;154126;1101;103231;-82
2021/07/10 20:33:40;;;;;;;13.03;5.77;;;;;;;18.07;62.38;100482.09;154115;1093;103129;-81
2021/07/10 20:36:46;;;;;;;6.80;4.50;;;;;;;17.97;62.47;100477.87;154185;1093;103106;-82
2021/07/10 20:39:51;;;;;;;6.15;4.85;;;;;;;17.75;62.37;100489.72;154154;1093;103124;-81
2021/07/10 20:42:56;;;;;;;7.20;4.80;;;;;;;17.54;62.63;100486.00;154185;1101;103264;-79
2021/07/10 20:46:01;;;;;;;5.05;4.33;;;;;;;17.40;62.93;100481.52;154097;1101;103246;-78
2021/07/10 20:49:07;;;;;;;5.97;4.40;;;;;;;17.32;62.92;100476.22;154026;1097;103195;-79
2021/07/10 20:52:12;;;;;;;6.73;4.50;;;;;;;17.22;62.99;100479.23;154021;1101;103122;-84
2021/07/10 20:55:17;;;;;;;5.27;4.63;;;;;;;17.12;63.40;100476.02;154090;1101;103158;-82
2021/07/10 20:58:22;;;;;;;5.80;4.87;;;;;;;17.11;63.11;100475.20;154505;1095;103221;-84
2021/07/10 21:01:27;;;;;;;5.67;4.77;;;;;;;17.04;63.38;100467.02;154124;1101;103126;-84
2021/07/10 21:04:32;;;;;;;6.57;4.90;;;;;;;17.00;63.54;100479.20;154174;1096;103142;-85
2021/07/10 21:07:38;;;;;;;7.58;5.20;;;;;;;16.97;63.16;100476.05;154109;1096;103125;-83
2021/07/10 21:10:43;;;;;;;6.53;4.95;;;;;;;16.88;63.34;100478.87;154150;1097;103099;-83
2021/07/10 21:13:48;;;;;;;8.90;5.00;;;;;;;16.80;63.40;100476.26;154100;1093;103284;-82
2021/07/10 21:16:53;;;;;;;5.68;4.15;;;;;;;16.71;63.74;100474.69;154136;1101;103235;-77
2021/07/10 21:19:58;;;;;;;4.90;4.40;;;;;;;16.72;63.83;100476.34;154292;1094;103174;-79
2021/07/10 21:23:04;;;;;;;5.33;4.28;;;;;;;16.74;63.58;100474.29;153965;1101;103128;-78
2021/07/10 21:26:09;;;;;;;5.57;5.07;;;;;;;16.69;63.99;100476.73;154041;1101;103103;-77
2021/07/10 21:29:14;;;;;;;7.40;5.53;;;;;;;16.69;63.82;100477.56;153940;1101;103573;-78
2021/07/10 21:32:20;;;;;;;6.45;5.23;;;;;;;16.66;63.91;100479.79;154016;1101;103221;-78
2021/07/10 21:35:25;;;;;;;6.20;4.87;;;;;;;16.63;64.04;100477.48;154026;1093;103179;-77
2021/07/10 21:38:30;;;;;;;6.95;5.20;;;;;;;16.53;63.95;100480.44;153951;1094;103554;-78
2021/07/10 21:41:36;;;;;;;5.83;4.15;;;;;;;16.42;63.84;100470.98;154033;1101;103115;-77
2021/07/10 21:44:41;;;;;;;5.93;4.65;;;;;;;16.37;64.09;100473.39;153993;1093;103281;-76
2021/07/10 21:47:46;;;;;;;6.10;4.87;;;;;;;16.35;64.23;100475.44;154142;1101;103244;-77
2021/07/10 21:50:52;;;;;;;6.33;5.00;;;;;;;16.29;64.47;100470.80;154103;1101;103254;-76
2021/07/10 21:53:57;;;;;;;8.43;5.50;;;;;;;16.21;64.38;100468.20;153983;1101;103195;-76
2021/07/10 21:57:02;;;;;;;6.85;5.23;;;;;;;16.21;64.16;100478.97;153983;1101;103134;-78
2021/07/10 22:00:39;;;;;;;8.13;5.50;;;;;;;16.22;64.49;100467.99;154157;1101;103220;-74
2021/07/10 22:03:44;;;;;;;5.75;5.03;;;;;;;16.21;64.58;100465.51;153998;1093;103196;-82
2021/07/10 22:06:49;;;;;;;5.30;4.47;;;;;;;16.18;64.83;100468.56;153946;1101;103262;-84
2021/07/10 22:09:54;;;;;;;6.10;4.40;;;;;;;16.21;64.86;100463.65;154029;1101;103140;-80
2021/07/10 22:13:00;;;;;;;5.25;4.28;;;;;;;16.28;64.80;100458.34;153929;1101;103195;-78
2021/07/10 22:16:05;;;;;;;6.63;5.03;;;;;;;16.31;64.62;100463.37;153957;1093;103512;-76
2021/07/10 22:19:12;;;;;;;8.65;5.20;;;;;;;16.31;64.99;100462.55;153975;1101;103145;-78
2021/07/10 22:22:18;;;;;;;6.10;4.97;;;;;;;16.31;64.78;100463.37;153950;1093;103218;-79
2021/07/10 22:25:23;;;;;;;5.77;5.17;;;;;;;16.33;64.77;100461.33;153965;1093;103144;-81
2021/07/10 22:28:28;;;;;;;5.90;5.30;;;;;;;16.35;64.46;100458.45;154049;1093;103222;-78
2021/07/10 22:31:34;;;;;;;7.97;5.60;;;;;;;16.34;64.81;100456.77;153955;1101;103260;-78
2021/07/10 22:34:39;;;;;;;5.37;4.43;;;;;;;16.34;65.01;100462.16;154063;1101;103124;-80
2021/07/10 22:37:44;;;;;;;6.07;4.30;;;;;;;16.40;64.63;100456.88;153966;1093;103137;-79
2021/07/10 22:40:50;;;;;;;5.10;4.60;;;;;;;16.43;65.23;100455.66;154035;1093;103102;-81
2021/07/10 22:43:55;;;;;;;7.05;4.98;;;;;;;16.48;64.49;100464.84;154113;1101;103125;-81
2021/07/10 22:47:00;;;;;;;6.37;4.87;;;;;;;16.52;64.81;100453.72;154109;1101;103260;-80
2021/07/10 22:50:07;;;;;;;5.60;5.00;;;;;;;16.51;64.64;100452.03;154090;1093;103228;-80
2021/07/10 22:53:12;;;;;;;6.77;4.63;;;;;;;16.49;65.00;100450.38;154038;1101;103192;-81
2021/07/10 22:56:17;;;;;;;7.30;5.40;;;;;;;16.56;65.01;100455.01;154098;1101;103249;-81
2021/07/10 22:59:22;;;;;;;7.65;5.53;;;;;;;16.54;64.87;100457.05;154134;1093;103182;-79
2021/07/10 23:02:27;;;;;;;6.47;5.53;;;;;;;16.52;64.92;100457.23;154024;1101;103208;-81
2021/07/10 23:05:33;;;;;;;5.83;5.17;;;;;;;16.51;64.73;100452.03;154135;1093;103132;-81
2021/07/10 23:08:38;;;;;;;8.13;5.40;;;;;;;16.49;64.85;100457.59;154616;1093;103163;-79
2021/07/10 23:11:43;;;;;;;6.43;4.70;;;;;;;16.49;64.72;100455.77;154453;1096;103107;-80
2021/07/10 23:14:48;;;;;;;6.25;4.43;;;;;;;16.52;65.00;100456.41;154067;1101;103195;-80
2021/07/10 23:17:54;;;;;;;6.07;4.83;;;;;;;16.55;64.67;100464.09;154211;1101;103195;-80
2021/07/10 23:20:59;;;;;;;6.58;4.73;;;;;;;16.55;64.58;100456.02;154084;1095;103134;-83
2021/07/10 23:24:04;;;;;;;5.95;4.90;;;;;;;16.52;64.56;100453.72;154305;1101;103128;-81
2021/07/10 23:27:09;;;;;;;6.30;5.25;;;;;;;16.48;64.85;100459.46;154017;1094;103125;-76
2021/07/10 23:30:16;;;;;;;6.65;5.35;;;;;;;16.51;64.35;100463.63;154003;1101;103163;-76
2021/07/10 23:33:21;;;;;;;6.67;5.50;;;;;;;16.42;64.63;100459.39;153951;1096;103282;-76
2021/07/10 23:36:26;;;;;;;6.65;5.35;;;;;;;16.41;64.54;100455.01;154024;1101;103198;-76
2021/07/10 23:39:31;;;;;;;6.23;5.50;;;;;;;16.38;64.40;100456.23;153905;1101;103128;-77
2021/07/10 23:42:36;;;;;;;5.80;5.20;;;;;;;16.35;64.29;100451.20;153950;1101;103199;-78
2021/07/10 23:45:41;;;;;;;7.60;5.30;;;;;;;16.29;64.61;100455.47;153958;1096;103125;-78
2021/07/10 23:48:46;;;;;;;7.23;5.88;;;;;;;16.23;64.51;100450.00;153931;1101;103203;-79
2021/07/10 23:51:51;;;;;;;8.07;6.03;;;;;;;16.15;64.41;100441.99;153976;1101;103146;-80
2021/07/10 23:54:56;;;;;;;6.68;4.98;;;;;;;16.14;64.60;100443.86;153960;1096;103195;-81